Terminal Aerodrome Forecast
Issued by NWS

Home | Current Version | Previous Version | Text Only | Print | Product List | Glossary On
Versions: 1 2 3 4 5 6 7 8 9 10 11 12 13 14 15 16 17 18 19
440
FTUS41 KILN 221733
TAFLCK
TAF
KLCK 221733Z 2218/2318 33010KT P6SM OVC035
     FM230000 34004KT P6SM SCT035
     FM230200 VRB03KT P6SM SKC
     FM230700 VRB03KT P6SM BKN250
     FM231500 20007KT P6SM BKN120=

USA.gov is the U.S. government's official web portal to all federal, state and local government web resources and services.